This is the latest recevied weather packets stored in our database for station/object EA4BCR. If no packets are shown the sender has not sent any weather packets the latest 10 day(s).
| Time | Temp. | Humidity | Pressure | Rain* | Wind** | Luminosity | Snow |
|---|---|---|---|---|---|---|---|
| 1788141018 | 16.67° C | 42% | 1018.8 hPa | - | - | - | - |
| 1788140418 | 17.22° C | 41% | 1018.6 hPa | - | - | - | - |
| 1788139818 | 17.22° C | 42% | 1018.6 hPa | - | - | - | - |
| 1788139218 | 17.22° C | 42% | 1018.6 hPa | - | - | - | - |
| 1788138618 | 16.67° C | 43% | 1018.7 hPa | - | - | - | - |
| 1788138018 | 17.22° C | 41% | 1018.6 hPa | - | - | - | - |
| 1788137418 | 17.78° C | 41% | 1018.5 hPa | - | - | - | - |
| 1788136818 | 17.22° C | 42% | 1018.6 hPa | - | - | - | - |
| 1788136218 | 17.78° C | 40% | 1018.3 hPa | - | - | - | - |
| 1788135618 | 17.78° C | 40% | 1018.1 hPa | - | - | - | - |
| 1788135018 | 17.78° C | 39% | 1018.2 hPa | - | - | - | - |
| 1788134418 | 17.78° C | 39% | 1018.2 hPa | - | - | - | - |
| 1788133818 | 18.33° C | 39% | 1018.1 hPa | - | - | - | - |
| 1788133218 | 18.33° C | 39% | 1018 hPa | - | - | - | - |
| 1788132618 | 18.33° C | 39% | 1018.1 hPa | - | - | - | - |
| 1788132018 | 18.89° C | 39% | 1017.9 hPa | - | - | - | - |
| 1788131418 | 18.33° C | 38% | 1018.1 hPa | - | - | - | - |
| 1788130818 | 18.89° C | 37% | 1017.9 hPa | - | - | - | - |
| 1788130218 | 19.44° C | 36% | 1017.5 hPa | - | - | - | - |
| 1788129618 | 20° C | 36% | 1017.3 hPa | - | - | - | - |
| 1788129018 | 20.56° C | 36% | 1017.1 hPa | - | - | - | - |
| 1788128418 | 20.56° C | 36% | 1017.1 hPa | - | - | - | - |
| 1788127818 | 20.56° C | 35% | 1017.1 hPa | - | - | - | - |
| 1788127218 | 20.56° C | 34% | 1017.1 hPa | - | - | - | - |
| 1788126618 | 21.11° C | 33% | 1016.7 hPa | - | - | - | - |
* Rain since midnight (hover to see other rain measurements)
** Current wind speed in m/s (hover to see current wind gust speed)